Robertsdale, AL (36567)

4:11 AM CDT on April 27, 2017 (GMT -0500)
Robertsdale - CR 48 West | | Change Station

Elev 95 ft 30.53 °N, 87.73 °W | Updated 3 minutes ago

Overcast
Overcast
76.1 °F
Feels Like 76 °F
N
3.0
Wind Variable Wind from South
Gusts 12.0 mph

Today
High -- | Low -- °F
--% Chance of Precip.
Yesterday
High -- | Low -- °F
Precip. -- in
Pressure 29.72 in
Visibility 10.0 miles
Clouds Overcast 900 ft
Heat Index 76 °F
Dew Point 74 °F
Humidity 92%
Rainfall 0.00 in
Snow Depth Not available.
6:10 AM 7:26 PM
New Moon, 1% visible
METAR KCQF 270855Z AUTO 18012G17KT 10SM OVC009 23/23 A2972 RMK AO2
Pressure 29.72 in
Visibility 10.0 miles
Clouds Overcast 900 ft
Heat Index 76 °F
Dew Point 74 °F
Humidity 92%
Rainfall 0.00 in
Snow Depth Not available.
6:10 AM 7:26 PM
New Moon, 1% visible
METAR KCQF 270855Z AUTO 18012G17KT 10SM OVC009 23/23 A2972 RMK AO2

Get Severe Weather Alerts

Thanks for signing up!

Be on the lookout for a verification email in your inbox.

You'll start receiving the daily forecast at 8 AM.

×

10-Day Weather Forecast

Almanac

Astronomy

Apr. 27, 2017 Rise Set
Actual Time
Civil Twilight
Nautical Twilight
Astronomical Twilight
Moon
Length of Visible Light
Length of Day
Tomorrow will be .
, % of the Moon is Illuminated

Today's Extremes

State Highs State Lows

Community

WunderPhotos

WunderBlog® & News

Nearby

Air Quality

  Air Quality AQ Index Pollutant
Not available.

Snow Depth

Station Depth Elevation

Earthquake Activity

City Distance Mag. Time & Date
Minimum magnitude displayed is 2.5.

Coastal Water Temperatures

Place Temperature

Stations

Nearby Weather Stations

Station Location Temp. Windchill Dew Point Humidity Wind Precip. Elev Updated Type
                   

Watches & Warnings

There are currently no watches in effect.